createdAt,value
2022-10-21T00:00:40.891Z,98262.34
2022-10-21T00:03:29.046Z,98250.84
2022-10-21T00:06:17.652Z,98238.41
2022-10-21T00:09:05.284Z,98217.09
2022-10-21T00:11:52.957Z,98214.78
2022-10-21T00:14:40.353Z,98218.59
2022-10-21T00:17:27.855Z,98227.59
2022-10-21T00:20:19.188Z,98235.56
2022-10-21T00:23:08.264Z,98239.19
2022-10-21T00:25:58.470Z,98246.53
2022-10-21T00:28:46.426Z,98244.03
2022-10-21T00:31:34.748Z,98231.53
2022-10-21T00:34:25.863Z,98226.34
2022-10-21T00:37:17.658Z,98205.56
2022-10-21T00:40:08.182Z,98206.88
2022-10-21T00:42:55.914Z,98224.13
2022-10-21T00:45:45.216Z,98233.63
2022-10-21T00:48:38.115Z,98236.44
2022-10-21T00:51:26.182Z,98212.00
2022-10-21T00:54:14.430Z,98175.78
2022-10-21T00:57:03.322Z,98165.28
2022-10-21T00:59:58.597Z,98206.34
2022-10-21T01:02:46.632Z,98218.78
2022-10-21T01:05:37.426Z,98207.47
2022-10-21T01:08:28.935Z,98181.72
2022-10-21T01:11:20.639Z,98179.22
2022-10-21T01:14:57.274Z,98163.22
2022-10-21T01:18:06.144Z,98164.38
2022-10-21T01:25:23.730Z,98157.50
2022-10-21T01:28:36.711Z,98163.97
2022-10-21T01:31:39.560Z,98161.47
2022-10-21T01:34:33.037Z,98156.63
2022-10-21T01:37:29.314Z,98150.63
2022-10-21T01:40:25.124Z,98162.41
2022-10-21T01:43:22.052Z,98155.75
2022-10-21T01:46:17.782Z,98157.03
2022-10-21T01:49:15.811Z,98155.38
2022-10-21T01:52:07.074Z,98143.25
2022-10-21T01:55:00.194Z,98139.59
2022-10-21T01:57:53.097Z,98146.88
2022-10-21T02:00:43.984Z,98151.22
2022-10-21T02:03:38.413Z,98148.03
2022-10-21T02:06:27.860Z,98164.81
2022-10-21T02:09:15.504Z,98141.06
2022-10-21T02:12:15.340Z,98162.31
2022-10-21T02:15:09.131Z,98162.63
2022-10-21T02:18:06.626Z,98146.69
2022-10-21T02:21:00.338Z,98154.28
2022-10-21T02:23:55.291Z,98146.59
2022-10-21T02:26:43.201Z,98147.59
2022-10-21T02:29:38.498Z,98146.09
2022-10-21T02:32:40.243Z,98142.22
2022-10-21T02:35:39.990Z,98145.41
2022-10-21T02:38:32.889Z,98157.84
2022-10-21T02:41:26.248Z,98157.03
2022-10-21T02:44:14.411Z,98143.22
2022-10-21T02:47:04.357Z,98137.06
2022-10-21T02:49:51.913Z,98129.63
2022-10-21T02:52:39.453Z,98140.09
2022-10-21T02:55:27.329Z,98135.31
2022-10-21T02:58:16.556Z,98140.63
2022-10-21T03:01:04.248Z,98127.34
2022-10-21T03:03:51.914Z,98134.47
2022-10-21T03:06:39.435Z,98120.00
2022-10-21T03:09:27.446Z,98114.00
2022-10-21T03:12:15.092Z,98106.50
2022-10-21T03:15:05.852Z,98118.63
2022-10-21T03:17:53.650Z,98107.34
2022-10-21T03:20:41.222Z,98093.69
2022-10-21T03:23:28.710Z,98080.75
2022-10-21T03:26:16.952Z,98076.75
2022-10-21T03:29:04.484Z,98077.91
2022-10-21T03:31:53.391Z,98065.59
2022-10-21T03:34:40.865Z,98062.44
2022-10-21T03:37:28.928Z,98067.91
2022-10-21T03:40:18.240Z,98064.41
2022-10-21T03:43:06.130Z,98071.41
2022-10-21T03:45:53.796Z,98070.25
2022-10-21T03:48:43.048Z,98079.34
2022-10-21T03:51:30.736Z,98078.97
2022-10-21T03:54:18.854Z,98068.69
2022-10-21T03:57:07.084Z,98071.47
2022-10-21T03:59:55.171Z,98070.78
2022-10-21T04:02:42.774Z,98067.19
2022-10-21T04:05:31.601Z,98064.53
2022-10-21T04:08:19.242Z,98071.78
2022-10-21T04:11:07.209Z,98068.13
2022-10-21T04:13:54.764Z,98063.19
2022-10-21T04:16:42.880Z,98062.63
2022-10-21T04:19:30.514Z,98072.25
2022-10-21T04:22:19.233Z,98057.94
2022-10-21T04:25:07.554Z,98045.38
2022-10-21T04:27:55.501Z,98045.16
2022-10-21T04:30:43.174Z,98035.53
2022-10-21T04:33:30.855Z,98030.56
2022-10-21T04:36:18.765Z,98020.13
2022-10-21T04:39:08.199Z,98002.72
2022-10-21T04:41:56.422Z,98007.69
2022-10-21T04:44:44.544Z,98000.75
2022-10-21T04:47:32.008Z,97997.63
2022-10-21T04:50:19.715Z,97985.84
2022-10-21T04:53:07.403Z,97980.03
2022-10-21T04:55:56.440Z,97986.63
2022-10-21T04:58:44.034Z,97982.97
2022-10-21T05:01:31.733Z,97990.13
2022-10-21T05:04:19.723Z,97989.66
2022-10-21T05:07:07.534Z,97971.75
2022-10-21T05:09:54.977Z,97973.06
2022-10-21T05:12:43.765Z,97965.25
2022-10-21T05:15:31.686Z,97966.09
2022-10-21T05:18:19.325Z,97960.94
2022-10-21T05:21:06.990Z,97958.59
2022-10-21T05:23:54.540Z,97958.59
2022-10-21T05:26:42.029Z,97956.91
2022-10-21T05:29:30.998Z,97960.09
2022-10-21T05:32:18.811Z,97968.69
2022-10-21T05:35:07.815Z,97966.03
2022-10-21T05:37:55.789Z,97967.34
2022-10-21T05:40:43.286Z,97953.09
2022-10-21T05:43:30.954Z,97946.97
2022-10-21T05:46:20.005Z,97948.78
2022-10-21T05:49:08.109Z,97958.06
2022-10-21T05:51:55.659Z,97960.88
2022-10-21T05:54:43.108Z,97965.06
2022-10-21T05:57:33.734Z,97958.75
2022-10-21T06:00:21.834Z,97973.38
2022-10-21T06:03:10.662Z,97972.53
2022-10-21T06:05:58.941Z,97978.75
2022-10-21T06:08:46.601Z,97992.50
2022-10-21T06:11:34.373Z,97995.72
2022-10-21T06:14:22.000Z,97993.75
2022-10-21T06:17:11.476Z,97998.38
2022-10-21T06:20:01.661Z,97986.81
2022-10-21T06:22:51.573Z,98001.09
2022-10-21T06:25:39.476Z,98005.56
2022-10-21T06:28:29.473Z,98010.94
2022-10-21T06:31:21.482Z,98005.31
2022-10-21T06:34:09.142Z,98018.59
2022-10-21T06:36:57.965Z,98015.44
2022-10-21T06:39:45.774Z,98019.75
2022-10-21T06:42:33.224Z,98022.31
2022-10-21T06:45:20.873Z,98028.31
2022-10-21T06:48:08.818Z,98033.94
2022-10-21T06:51:01.418Z,98034.16
2022-10-21T06:53:55.582Z,98047.31
2022-10-21T06:56:43.203Z,98038.84
2022-10-21T06:59:31.239Z,98036.19
2022-10-21T07:02:18.786Z,98038.50
2022-10-21T07:05:07.403Z,98025.56
2022-10-21T07:07:55.029Z,98025.41
2022-10-21T07:10:46.354Z,98020.59
2022-10-21T07:13:36.317Z,98024.56
2022-10-21T07:16:27.356Z,98037.72
2022-10-21T07:19:15.546Z,98027.56
2022-10-21T07:22:03.119Z,98030.06
2022-10-21T07:24:50.827Z,98044.00
2022-10-21T07:27:41.389Z,98043.00
2022-10-21T07:30:31.438Z,98050.03
2022-10-21T07:33:18.851Z,98051.34
2022-10-21T07:36:09.163Z,98058.31
2022-10-21T07:39:01.061Z,98059.50
2022-10-21T07:41:51.798Z,98051.00
2022-10-21T07:44:40.525Z,98039.81
2022-10-21T07:47:28.781Z,98037.31
2022-10-21T07:50:17.620Z,98034.31
2022-10-21T07:53:11.961Z,98041.63
2022-10-21T07:56:07.401Z,98038.25
2022-10-21T07:58:55.857Z,98030.41
2022-10-21T08:04:35.118Z,98034.00
2022-10-21T08:07:22.704Z,98054.81
2022-10-21T08:10:10.739Z,98048.66
2022-10-21T08:12:58.469Z,98054.13
2022-10-21T08:15:47.887Z,98059.47
2022-10-21T08:18:36.746Z,98050.78
2022-10-21T08:21:24.481Z,98052.56
2022-10-21T08:24:12.018Z,98060.34
2022-10-21T08:26:59.984Z,98063.34
2022-10-21T08:29:49.107Z,98062.44
2022-10-21T08:32:36.970Z,98062.25
2022-10-21T08:35:26.401Z,98065.59
2022-10-21T08:38:14.095Z,98074.72
2022-10-21T08:41:04.706Z,98066.38
2022-10-21T08:43:54.485Z,98065.56
2022-10-21T08:46:50.749Z,98055.88
2022-10-21T08:49:52.029Z,98046.53
2022-10-21T08:52:48.478Z,98055.53
2022-10-21T08:55:42.236Z,98040.00
2022-10-21T08:58:29.770Z,98044.66
2022-10-21T09:01:27.439Z,98032.13
2022-10-21T09:04:28.995Z,98022.78
2022-10-21T09:07:30.750Z,98010.06
2022-10-21T09:10:33.333Z,98013.41
2022-10-21T09:13:41.233Z,98005.41
2022-10-21T09:16:47.301Z,97994.94
2022-10-21T09:19:53.473Z,98001.00
2022-10-21T09:23:03.677Z,97998.16
2022-10-21T09:26:00.978Z,98012.97
2022-10-21T09:28:49.918Z,98013.81
2022-10-21T09:31:37.450Z,98025.31
2022-10-21T09:34:44.713Z,98028.63
2022-10-21T09:37:41.628Z,98025.78
2022-10-21T09:40:37.967Z,98043.09
2022-10-21T09:43:28.647Z,98061.59
2022-10-21T09:46:17.195Z,98042.28
2022-10-21T09:49:41.449Z,98032.91
2022-10-21T09:52:14.030Z,98016.16
2022-10-21T09:55:01.862Z,98019.13
2022-10-21T09:57:58.516Z,98030.66
2022-10-21T10:00:51.466Z,98049.00
2022-10-21T10:03:45.604Z,98070.34
2022-10-21T10:06:37.949Z,98088.06
2022-10-21T10:09:31.439Z,98067.41
2022-10-21T10:12:24.959Z,98047.78
2022-10-21T10:15:33.367Z,98042.56
2022-10-21T10:18:24.893Z,98011.72
2022-10-21T10:21:15.260Z,98016.41
2022-10-21T10:24:05.270Z,98001.66
2022-10-21T10:26:53.700Z,98000.03
2022-10-21T10:29:44.040Z,97978.66
2022-10-21T10:32:36.389Z,97985.28
2022-10-21T10:35:33.249Z,97978.56
2022-10-21T10:38:26.561Z,97976.88
2022-10-21T10:41:18.400Z,97972.56
2022-10-21T10:44:25.932Z,97958.09
2022-10-21T10:47:25.227Z,97951.13
2022-10-21T10:50:48.240Z,97949.03
2022-10-21T10:53:39.479Z,97951.34
2022-10-21T10:56:32.095Z,97965.56
2022-10-21T10:59:33.868Z,97979.94
2022-10-21T11:02:36.213Z,98044.91
2022-10-21T11:05:29.784Z,98074.25
2022-10-21T11:08:30.757Z,98066.31
2022-10-21T11:11:27.934Z,98056.44
2022-10-21T11:14:21.810Z,98055.81
2022-10-21T11:17:13.836Z,98045.38
2022-10-21T11:20:18.588Z,98048.44
2022-10-21T11:23:35.893Z,98065.69
2022-10-21T11:26:38.691Z,98054.16
2022-10-21T11:29:40.937Z,98052.31
2022-10-21T11:32:41.358Z,98053.50
2022-10-21T11:35:53.067Z,98036.16
2022-10-21T11:39:18.274Z,98048.16
2022-10-21T11:42:21.880Z,98040.78
2022-10-21T11:45:50.661Z,98042.25
2022-10-21T11:49:13.880Z,98048.44
2022-10-21T11:52:14.163Z,98044.34
2022-10-21T11:55:34.472Z,98051.09
2022-10-21T11:58:39.658Z,98054.44
2022-10-21T12:01:38.051Z,98055.34
2022-10-21T12:04:37.705Z,98055.34
2022-10-21T12:07:54.497Z,98052.91
2022-10-21T12:10:52.179Z,98057.91
2022-10-21T12:13:48.530Z,98055.88
2022-10-21T12:16:37.227Z,98059.81
2022-10-21T12:19:27.140Z,98050.16
2022-10-21T12:22:15.735Z,98055.94
2022-10-21T12:25:18.581Z,98057.81
2022-10-21T12:28:20.511Z,98059.44
2022-10-21T12:31:34.254Z,98052.69
2022-10-21T12:34:22.720Z,98051.53
2022-10-21T12:38:06.294Z,98038.50
2022-10-21T12:41:36.558Z,98039.97
2022-10-21T12:44:28.928Z,98045.84
2022-10-21T12:47:29.952Z,98040.25
2022-10-21T12:50:29.819Z,98041.91
2022-10-21T12:53:34.670Z,98041.53
2022-10-21T12:56:34.487Z,98046.00
2022-10-21T12:59:35.569Z,98044.94
2022-10-21T13:02:29.242Z,98034.78
2022-10-21T13:06:02.767Z,98043.22
2022-10-21T13:08:56.148Z,98041.56
2022-10-21T13:11:43.782Z,98027.63
2022-10-21T13:14:41.308Z,98019.00
2022-10-21T13:17:50.120Z,98024.06
2022-10-21T13:20:49.455Z,98021.97
2022-10-21T13:23:45.117Z,98016.09
2022-10-21T13:26:33.441Z,98024.53
2022-10-21T13:29:42.616Z,98024.56
2022-10-21T13:32:33.483Z,98016.41
2022-10-21T13:35:33.979Z,98009.47
2022-10-21T13:38:26.760Z,98007.63
2022-10-21T13:41:24.485Z,98003.94
2022-10-21T13:44:29.899Z,98009.13
2022-10-21T13:47:30.273Z,98007.09
2022-10-21T13:50:25.138Z,97998.50
2022-10-21T13:53:28.516Z,97999.97
2022-10-21T13:56:25.031Z,97993.22
2022-10-21T13:59:24.932Z,97992.81
2022-10-21T14:02:27.750Z,97994.47
2022-10-21T14:05:35.657Z,97999.22
2022-10-21T14:08:29.473Z,97992.84
2022-10-21T14:11:21.969Z,97990.34
2022-10-21T14:14:15.994Z,97987.28
2022-10-21T14:17:08.983Z,97988.75
2022-10-21T14:20:07.730Z,97983.78
2022-10-21T14:22:57.066Z,97989.16
2022-10-21T14:25:44.847Z,97982.56
2022-10-21T14:28:34.567Z,97974.72
2022-10-21T14:31:22.452Z,97975.94
2022-10-21T14:34:23.476Z,97981.34
2022-10-21T14:37:22.328Z,97982.19
2022-10-21T14:40:22.374Z,97997.88
2022-10-21T14:43:22.246Z,98009.44
2022-10-21T14:46:12.063Z,98003.03
2022-10-21T14:49:03.270Z,97988.38
2022-10-21T14:51:52.292Z,97997.03
2022-10-21T14:54:47.246Z,98005.53
2022-10-21T14:57:43.369Z,98004.09
2022-10-21T15:00:34.587Z,98002.63
2022-10-21T15:03:39.629Z,97989.81
2022-10-21T15:06:30.313Z,97984.66
2022-10-21T15:09:23.395Z,97971.00
2022-10-21T15:12:20.728Z,97983.00
2022-10-21T15:15:53.399Z,97972.06
2022-10-21T15:18:47.364Z,97972.84
2022-10-21T15:21:40.581Z,97972.66
2022-10-21T15:24:42.972Z,97968.53
2022-10-21T15:27:42.189Z,97965.22
2022-10-21T15:30:35.148Z,97966.88
2022-10-21T15:33:23.497Z,97972.66
2022-10-21T15:36:13.278Z,97970.59
2022-10-21T15:39:04.262Z,97977.63
2022-10-21T15:42:02.201Z,97979.03
2022-10-21T15:44:52.075Z,97972.03
2022-10-21T15:47:39.745Z,97970.97
2022-10-21T15:50:28.498Z,97966.41
2022-10-21T15:53:16.230Z,97970.13
2022-10-21T15:56:03.823Z,97972.97
2022-10-21T15:58:51.277Z,97966.78
2022-10-21T16:01:40.158Z,97965.28
2022-10-21T16:04:30.945Z,97979.09
2022-10-21T16:07:23.375Z,97977.38
2022-10-21T16:10:27.248Z,97971.34
2022-10-21T16:13:19.260Z,97977.91
2022-10-21T16:16:20.054Z,97972.72
2022-10-21T16:19:10.437Z,97961.53
2022-10-21T16:21:58.384Z,97960.66
2022-10-21T16:24:46.132Z,97956.50
2022-10-21T16:27:57.832Z,97962.00
2022-10-21T16:30:41.802Z,97956.34
2022-10-21T16:33:30.258Z,97955.69
2022-10-21T16:36:22.327Z,97965.72
2022-10-21T16:39:16.644Z,97967.72
2022-10-21T16:42:03.962Z,97975.03
2022-10-21T16:44:51.606Z,97977.84
2022-10-21T16:47:40.048Z,97977.16
2022-10-21T16:50:39.261Z,97985.31
2022-10-21T16:53:29.071Z,97990.81
2022-10-21T16:56:17.380Z,97998.94
2022-10-21T17:00:20.782Z,97999.09
2022-10-21T17:03:13.334Z,97986.84
2022-10-21T17:06:01.161Z,97986.78
2022-10-21T17:08:52.628Z,97993.69
2022-10-21T17:11:42.551Z,97997.31
2022-10-21T17:14:30.406Z,98003.44
2022-10-21T17:17:21.039Z,97995.31
2022-10-21T17:20:11.403Z,97994.22
2022-10-21T17:22:58.962Z,97999.47
2022-10-21T17:25:47.989Z,97993.88
2022-10-21T17:28:35.489Z,97998.06
2022-10-21T17:31:27.515Z,97988.97
2022-10-21T17:34:28.103Z,97997.72
2022-10-21T17:37:15.805Z,97998.44
2022-10-21T17:40:03.419Z,97991.00
2022-10-21T17:42:55.534Z,98002.25
2022-10-21T17:45:43.079Z,98001.13
2022-10-21T17:48:30.655Z,98007.84
2022-10-21T17:51:19.142Z,98003.25
2022-10-21T17:54:07.561Z,98011.81
2022-10-21T17:56:56.757Z,98008.88
2022-10-21T17:59:47.410Z,98005.91
2022-10-21T18:02:35.904Z,98015.28
2022-10-21T18:05:23.412Z,98004.31
2022-10-21T18:08:11.387Z,98019.22
2022-10-21T18:11:00.450Z,98018.13
2022-10-21T18:13:55.291Z,98014.97
2022-10-21T18:16:47.389Z,98007.50
2022-10-21T18:19:40.375Z,98002.88
2022-10-21T18:22:27.807Z,97990.91
2022-10-21T18:25:18.434Z,98007.28
2022-10-21T18:28:16.262Z,98002.47
2022-10-21T18:31:10.362Z,98010.03
2022-10-21T18:34:12.487Z,98006.69
2022-10-21T18:37:00.504Z,98005.41
2022-10-21T18:39:49.510Z,98005.75
2022-10-21T18:42:47.173Z,98006.13
2022-10-21T18:45:38.430Z,97995.78
2022-10-21T18:48:31.583Z,97993.44
2022-10-21T18:51:22.953Z,97993.63
2022-10-21T18:54:10.577Z,97994.81
2022-10-21T18:57:16.064Z,97998.88
2022-10-21T19:00:09.793Z,97991.38
2022-10-21T19:02:58.400Z,97985.22
2022-10-21T19:06:02.108Z,97985.56
2022-10-21T19:09:40.668Z,97995.75
2022-10-21T19:12:30.948Z,98005.06
2022-10-21T19:15:24.512Z,98019.94
2022-10-21T19:18:18.385Z,98021.13
2022-10-21T19:21:09.642Z,98020.47
2022-10-21T19:24:09.761Z,98016.47
2022-10-21T19:27:20.259Z,98013.19
2022-10-21T19:33:19.434Z,98025.00
2022-10-21T19:36:19.234Z,98023.72
2022-10-21T19:39:14.514Z,98017.75
2022-10-21T19:42:06.648Z,98020.59
2022-10-21T19:44:54.344Z,98022.41
2022-10-21T19:48:18.830Z,98015.78
2022-10-21T19:51:08.735Z,98016.75
2022-10-21T19:54:05.657Z,98011.78
2022-10-21T19:57:01.482Z,98017.28
2022-10-21T20:00:09.633Z,98016.81
2022-10-21T20:03:03.078Z,98024.31
2022-10-21T20:05:50.758Z,98020.00
2022-10-21T20:08:42.360Z,98022.84
2022-10-21T20:11:35.846Z,98028.50
2022-10-21T20:14:25.507Z,98038.50
2022-10-21T20:20:33.797Z,98046.03
2022-10-21T20:23:24.104Z,98057.84
2022-10-21T20:26:14.168Z,98054.53
2022-10-21T20:29:19.455Z,98056.53
2022-10-21T20:32:09.472Z,98053.22
2022-10-21T20:35:01.177Z,98054.22
2022-10-21T20:37:55.867Z,98048.25
2022-10-21T20:40:48.272Z,98052.72
2022-10-21T20:46:46.991Z,98053.91
2022-10-21T20:49:37.491Z,98047.75
2022-10-21T20:52:34.818Z,98048.94
2022-10-21T20:55:22.899Z,98051.75
2022-10-21T20:58:13.679Z,98046.78
2022-10-21T21:01:08.574Z,98052.28
2022-10-21T21:07:18.569Z,98048.28
2022-10-21T21:10:15.089Z,98046.78
2022-10-21T21:13:18.689Z,98035.66
2022-10-21T21:16:08.520Z,98042.13
2022-10-21T21:19:03.085Z,98038.16
2022-10-21T21:21:58.199Z,98023.34
2022-10-21T21:24:48.352Z,98030.84
2022-10-21T21:27:41.886Z,98029.38
2022-10-21T21:30:32.285Z,98031.34
2022-10-21T21:33:25.813Z,98021.88
2022-10-21T21:36:16.538Z,98022.22
2022-10-21T21:39:10.192Z,98023.41
2022-10-21T21:42:03.119Z,98009.41
2022-10-21T21:44:53.758Z,98000.09
2022-10-21T21:47:44.552Z,98004.72
2022-10-21T21:50:34.058Z,98010.38
2022-10-21T21:53:24.859Z,98004.41
2022-10-21T21:56:13.481Z,98002.09
2022-10-21T21:59:04.964Z,98001.41
2022-10-21T22:01:54.148Z,98009.75
2022-10-21T22:04:41.804Z,98012.56
2022-10-21T22:07:29.438Z,98005.75
2022-10-21T22:10:17.019Z,98007.75
2022-10-21T22:13:04.671Z,98009.78
2022-10-21T22:15:52.068Z,98008.09
2022-10-21T22:18:41.185Z,98017.91
2022-10-21T22:21:31.450Z,98022.41
2022-10-21T22:24:18.950Z,98030.72
2022-10-21T22:27:07.085Z,98049.69
2022-10-21T22:29:54.764Z,98049.03
2022-10-21T22:32:43.346Z,98041.38
2022-10-21T22:35:33.148Z,98046.03
2022-10-21T22:38:20.650Z,98045.50
2022-10-21T22:41:12.163Z,98039.53
2022-10-21T22:44:00.408Z,98043.34
2022-10-21T22:46:47.781Z,98034.72
2022-10-21T22:49:35.403Z,98032.91
2022-10-21T22:52:24.166Z,98032.22
2022-10-21T22:55:11.704Z,98036.69
2022-10-21T22:57:59.482Z,98048.66
2022-10-21T23:00:47.664Z,98037.72
2022-10-21T23:03:35.725Z,98047.34
2022-10-21T23:06:23.601Z,98045.69
2022-10-21T23:09:12.634Z,98040.38
2022-10-21T23:12:00.934Z,98030.56
2022-10-21T23:14:48.741Z,98036.69
2022-10-21T23:17:36.190Z,98038.03
2022-10-21T23:20:23.825Z,98044.38
2022-10-21T23:23:11.758Z,98045.69
2022-10-21T23:26:02.755Z,98049.69
2022-10-21T23:28:50.247Z,98050.03
2022-10-21T23:31:37.713Z,98046.88
2022-10-21T23:34:25.241Z,98062.16
2022-10-21T23:37:12.812Z,98060.47
2022-10-21T23:40:00.578Z,98060.84
2022-10-21T23:42:49.502Z,98056.66
2022-10-21T23:45:37.193Z,98053.31
2022-10-21T23:48:24.767Z,98052.66
2022-10-21T23:51:12.537Z,98053.34
2022-10-21T23:54:00.023Z,98057.31
2022-10-21T23:56:47.598Z,98057.31
2022-10-21T23:59:36.542Z,98055.47
